createdAt,value
2018-05-19T00:00:57.798Z,14.64
2018-05-19T00:02:04.534Z,14.61
2018-05-19T00:03:11.303Z,14.60
2018-05-19T00:04:18.093Z,14.59
2018-05-19T00:05:24.817Z,14.56
2018-05-19T00:06:31.554Z,14.56
2018-05-19T00:07:38.267Z,14.52
2018-05-19T00:08:45.126Z,14.51
2018-05-19T00:09:51.863Z,14.50
2018-05-19T00:10:58.567Z,14.49
2018-05-19T00:12:05.319Z,14.47
2018-05-19T00:13:12.135Z,14.46
2018-05-19T00:14:18.876Z,14.43
2018-05-19T00:15:25.623Z,14.42
2018-05-19T00:16:32.490Z,14.40
2018-05-19T00:17:39.170Z,14.38
2018-05-19T00:18:45.931Z,14.37
2018-05-19T00:19:52.626Z,14.35
2018-05-19T00:20:59.360Z,14.35
2018-05-19T00:22:06.090Z,14.33
2018-05-19T00:23:13.175Z,14.32
2018-05-19T00:24:19.891Z,14.30
2018-05-19T00:25:26.599Z,14.29
2018-05-19T00:26:33.327Z,14.27
2018-05-19T00:27:40.043Z,14.24
2018-05-19T00:28:47.038Z,14.25
2018-05-19T00:29:55.663Z,14.22
2018-05-19T00:31:01.162Z,14.21
2018-05-19T00:32:08.038Z,14.20
2018-05-19T00:33:15.306Z,14.18
2018-05-19T00:34:21.982Z,14.17
2018-05-19T00:35:28.600Z,14.16
2018-05-19T00:36:35.356Z,14.16
2018-05-19T00:37:42.130Z,14.15
2018-05-19T00:38:48.855Z,14.11
2018-05-19T00:39:55.567Z,14.10
2018-05-19T00:41:02.738Z,14.09
2018-05-19T00:42:09.424Z,14.08
2018-05-19T00:43:16.142Z,14.07
2018-05-19T00:44:22.874Z,14.05
2018-05-19T00:45:29.598Z,14.04
2018-05-19T00:46:36.419Z,14.02
2018-05-19T00:47:43.174Z,14.00
2018-05-19T00:48:49.893Z,13.99
2018-05-19T00:49:56.636Z,13.97
2018-05-19T00:51:03.370Z,13.96
2018-05-19T00:52:10.087Z,13.96
2018-05-19T00:53:16.810Z,13.93
2018-05-19T00:54:23.543Z,13.91
2018-05-19T00:55:30.376Z,13.91
2018-05-19T00:56:37.075Z,13.88
2018-05-19T00:57:43.807Z,13.87
2018-05-19T00:58:50.542Z,13.86
2018-05-19T00:59:57.255Z,13.84
2018-05-19T01:01:03.999Z,13.82
2018-05-19T01:02:10.743Z,13.81
2018-05-19T01:03:17.446Z,13.80
2018-05-19T01:04:24.198Z,13.78
2018-05-19T01:05:30.891Z,13.76
2018-05-19T01:06:37.634Z,13.75
2018-05-19T01:07:44.347Z,13.73
2018-05-19T01:08:51.064Z,13.72
2018-05-19T01:09:57.803Z,13.70
2018-05-19T01:11:04.863Z,13.68
2018-05-19T01:12:11.590Z,13.67
2018-05-19T01:13:18.378Z,13.65
2018-05-19T01:14:25.124Z,13.65
2018-05-19T01:15:31.849Z,13.63
2018-05-19T01:16:38.594Z,13.61
2018-05-19T01:17:45.486Z,13.61
2018-05-19T01:18:52.214Z,13.58
2018-05-19T01:19:59.159Z,13.57
2018-05-19T01:21:05.914Z,13.56
2018-05-19T01:22:12.633Z,13.54
2018-05-19T01:23:19.368Z,13.52
2018-05-19T01:24:26.194Z,13.52
2018-05-19T01:25:32.990Z,13.51
2018-05-19T01:26:39.752Z,13.50
2018-05-19T01:27:46.589Z,13.47
2018-05-19T01:28:53.319Z,13.46
2018-05-19T01:30:00.106Z,13.44
2018-05-19T01:31:06.880Z,13.44
2018-05-19T01:32:13.624Z,13.40
2018-05-19T01:33:20.607Z,13.41
2018-05-19T01:34:27.394Z,13.38
2018-05-19T01:35:34.169Z,13.37
2018-05-19T01:36:40.917Z,13.37
2018-05-19T01:37:47.775Z,13.35
2018-05-19T01:38:54.507Z,13.33
2018-05-19T01:40:01.274Z,13.31
2018-05-19T01:41:08.007Z,13.31
2018-05-19T01:42:14.815Z,13.29
2018-05-19T01:43:21.566Z,13.28
2018-05-19T01:44:28.287Z,13.26
2018-05-19T01:45:35.036Z,13.25
2018-05-19T01:46:41.832Z,13.23
2018-05-19T01:47:48.722Z,13.22
2018-05-19T01:48:55.429Z,13.21
2018-05-19T01:50:02.218Z,13.19
2018-05-19T01:51:09.002Z,13.18
2018-05-19T01:52:15.746Z,13.17
2018-05-19T01:53:22.586Z,13.16
2018-05-19T01:54:29.321Z,13.14
2018-05-19T01:55:36.126Z,13.13
2018-05-19T01:56:42.972Z,13.12
2018-05-19T01:57:49.763Z,13.09
2018-05-19T01:58:56.498Z,13.07
2018-05-19T02:00:03.246Z,13.07
2018-05-19T02:01:10.023Z,13.05
2018-05-19T02:02:16.759Z,13.03
2018-05-19T02:03:23.490Z,13.01
2018-05-19T02:04:30.229Z,13.02
2018-05-19T02:05:37.051Z,13.00
2018-05-19T02:06:43.911Z,12.99
2018-05-19T02:07:50.639Z,12.97
2018-05-19T02:08:57.402Z,12.96
2018-05-19T02:10:04.148Z,12.95
2018-05-19T02:11:10.960Z,12.93
2018-05-19T02:12:17.680Z,12.92
2018-05-19T02:13:24.424Z,12.91
2018-05-19T02:14:31.184Z,12.90
2018-05-19T02:15:37.939Z,12.89
2018-05-19T02:16:44.690Z,12.87
2018-05-19T02:17:51.443Z,12.85
2018-05-19T02:18:58.188Z,12.83
2018-05-19T02:20:04.930Z,12.83
2018-05-19T02:21:11.679Z,12.81
2018-05-19T02:22:18.459Z,12.80
2018-05-19T02:23:25.248Z,12.78
2018-05-19T02:24:31.972Z,12.79
2018-05-19T02:25:38.678Z,12.77
2018-05-19T02:26:45.515Z,12.76
2018-05-19T02:27:52.263Z,12.74
2018-05-19T02:28:59.002Z,12.73
2018-05-19T02:30:05.734Z,12.71
2018-05-19T02:31:12.532Z,12.69
2018-05-19T02:32:19.275Z,12.67
2018-05-19T02:33:25.988Z,12.66
2018-05-19T02:34:32.735Z,12.66
2018-05-19T02:35:39.533Z,12.63
2018-05-19T02:36:46.283Z,12.61
2018-05-19T02:37:53.035Z,12.60
2018-05-19T02:38:59.758Z,12.59
2018-05-19T02:40:06.618Z,12.58
2018-05-19T02:41:13.595Z,12.55
2018-05-19T02:42:20.347Z,12.55
2018-05-19T02:43:27.076Z,12.55
2018-05-19T02:44:33.823Z,12.52
2018-05-19T02:45:40.607Z,12.52
2018-05-19T02:46:47.320Z,12.52
2018-05-19T02:47:54.384Z,12.49
2018-05-19T02:49:01.106Z,12.48
2018-05-19T02:50:07.872Z,12.46
2018-05-19T02:51:14.644Z,12.45
2018-05-19T02:52:21.486Z,12.43
2018-05-19T02:53:28.210Z,12.41
2018-05-19T02:54:35.272Z,12.40
2018-05-19T02:55:41.667Z,12.39
2018-05-19T02:56:48.495Z,12.38
2018-05-19T02:57:55.467Z,12.37
2018-05-19T02:59:02.272Z,12.34
2018-05-19T03:00:09.028Z,12.34
2018-05-19T03:01:15.785Z,12.32
2018-05-19T03:02:22.534Z,12.30
2018-05-19T03:03:29.259Z,12.30
2018-05-19T03:04:35.983Z,12.28
2018-05-19T03:05:42.736Z,12.28
2018-05-19T03:06:49.538Z,12.26
2018-05-19T03:07:56.279Z,12.26
2018-05-19T03:09:02.980Z,12.23
2018-05-19T03:10:09.742Z,12.22
2018-05-19T03:11:16.494Z,12.21
2018-05-19T03:12:23.338Z,12.19
2018-05-19T03:13:30.084Z,12.19
2018-05-19T03:14:36.811Z,12.16
2018-05-19T03:15:43.536Z,12.15
2018-05-19T03:16:50.335Z,12.14
2018-05-19T03:17:57.079Z,12.14
2018-05-19T03:19:03.828Z,12.11
2018-05-19T03:20:10.557Z,12.10
2018-05-19T03:21:17.309Z,12.10
2018-05-19T03:22:24.104Z,12.08
2018-05-19T03:23:30.875Z,12.06
2018-05-19T03:24:37.680Z,12.06
2018-05-19T03:25:44.451Z,12.05
2018-05-19T03:26:51.200Z,12.02
2018-05-19T03:27:57.950Z,12.01
2018-05-19T03:29:04.684Z,11.99
2018-05-19T03:30:11.439Z,11.99
2018-05-19T03:31:18.186Z,11.98
2018-05-19T03:32:24.903Z,11.96
2018-05-19T03:33:31.966Z,11.95
2018-05-19T03:34:38.827Z,11.93
2018-05-19T03:35:45.536Z,11.92
2018-05-19T03:36:52.269Z,11.92
2018-05-19T03:37:59.039Z,11.89
2018-05-19T03:39:06.171Z,11.88
2018-05-19T03:40:12.971Z,11.84
2018-05-19T03:41:19.691Z,11.86
2018-05-19T03:42:26.439Z,11.85
2018-05-19T03:43:33.179Z,11.82
2018-05-19T03:44:39.961Z,11.82
2018-05-19T03:45:46.715Z,11.81
2018-05-19T03:46:53.454Z,11.79
2018-05-19T03:48:00.219Z,11.77
2018-05-19T03:49:06.983Z,11.76
2018-05-19T03:50:13.710Z,11.76
2018-05-19T03:51:20.484Z,11.74
2018-05-19T03:52:27.204Z,11.72
2018-05-19T03:53:33.995Z,11.72
2018-05-19T03:54:40.734Z,11.71
2018-05-19T03:55:47.752Z,11.69
2018-05-19T03:56:54.478Z,11.69
2018-05-19T03:58:01.369Z,11.66
2018-05-19T03:59:12.802Z,11.67
2018-05-19T04:00:19.637Z,11.66
2018-05-19T04:01:30.226Z,11.63
2018-05-19T04:02:37.061Z,11.62
2018-05-19T04:03:43.830Z,11.61
2018-05-19T04:04:50.580Z,11.60
2018-05-19T04:05:57.290Z,11.58
2018-05-19T04:07:04.091Z,11.57
2018-05-19T04:08:10.864Z,11.55
2018-05-19T04:09:17.607Z,11.53
2018-05-19T04:10:24.326Z,11.53
2018-05-19T04:11:31.127Z,11.52
2018-05-19T04:12:37.971Z,11.50
2018-05-19T04:13:44.734Z,11.48
2018-05-19T04:14:51.544Z,11.49
2018-05-19T04:15:58.266Z,11.48
2018-05-19T04:17:05.004Z,11.47
2018-05-19T04:18:11.743Z,11.45
2018-05-19T04:19:18.478Z,11.44
2018-05-19T04:20:25.195Z,11.41
2018-05-19T04:21:31.924Z,11.41
2018-05-19T04:22:38.916Z,11.41
2018-05-19T04:23:45.675Z,11.38
2018-05-19T04:24:52.422Z,11.38
2018-05-19T04:25:59.138Z,11.37
2018-05-19T04:27:05.906Z,11.33
2018-05-19T04:28:12.627Z,11.33
2018-05-19T04:29:19.357Z,11.31
2018-05-19T04:30:26.108Z,11.31
2018-05-19T04:31:32.875Z,11.31
2018-05-19T04:32:39.660Z,11.29
2018-05-19T04:33:46.420Z,11.28
2018-05-19T04:34:53.174Z,11.26
2018-05-19T04:35:59.919Z,11.23
2018-05-19T04:37:06.695Z,11.23
2018-05-19T04:38:13.438Z,11.21
2018-05-19T04:39:20.216Z,11.21
2018-05-19T04:40:26.937Z,11.19
2018-05-19T04:41:33.723Z,11.19
2018-05-19T04:42:40.495Z,11.17
2018-05-19T04:43:47.223Z,11.15
2018-05-19T04:44:53.982Z,11.16
2018-05-19T04:46:00.780Z,11.13
2018-05-19T04:47:07.546Z,11.11
2018-05-19T04:48:14.301Z,11.11
2018-05-19T04:49:21.049Z,11.10
2018-05-19T04:50:27.785Z,11.10
2018-05-19T04:51:34.542Z,11.09
2018-05-19T04:52:41.292Z,11.07
2018-05-19T04:53:48.035Z,11.07
2018-05-19T04:54:54.795Z,11.05
2018-05-19T04:56:01.530Z,11.05
2018-05-19T04:57:08.294Z,11.03
2018-05-19T04:58:15.059Z,11.02
2018-05-19T04:59:21.811Z,11.01
2018-05-19T05:00:28.568Z,11.00
2018-05-19T05:01:35.563Z,10.99
2018-05-19T05:02:42.286Z,10.99
2018-05-19T05:03:49.023Z,10.98
2018-05-19T05:04:55.785Z,10.97
2018-05-19T05:06:02.574Z,10.96
2018-05-19T05:07:09.274Z,10.95
2018-05-19T05:08:16.009Z,10.93
2018-05-19T05:09:22.750Z,10.93
2018-05-19T05:10:29.839Z,10.91
2018-05-19T05:11:36.560Z,10.91
2018-05-19T05:12:43.369Z,10.91
2018-05-19T05:13:50.159Z,10.89
2018-05-19T05:14:56.890Z,10.88
2018-05-19T05:16:03.623Z,10.88
2018-05-19T05:17:10.379Z,10.88
2018-05-19T05:18:17.113Z,10.87
2018-05-19T05:19:23.865Z,10.85
2018-05-19T05:20:30.606Z,10.86
2018-05-19T05:21:37.414Z,10.85
2018-05-19T05:22:44.138Z,10.84
2018-05-19T05:23:50.845Z,10.81
2018-05-19T05:24:57.568Z,10.82
2018-05-19T05:26:04.279Z,10.82
2018-05-19T05:27:11.058Z,10.79
2018-05-19T05:28:17.843Z,10.80
2018-05-19T05:29:24.610Z,10.79
2018-05-19T05:30:31.359Z,10.79
2018-05-19T05:31:38.158Z,10.78
2018-05-19T05:32:44.863Z,10.77
2018-05-19T05:33:51.595Z,10.76
2018-05-19T05:34:58.319Z,10.77
2018-05-19T05:36:05.045Z,10.76
2018-05-19T05:37:11.872Z,10.75
2018-05-19T05:38:18.590Z,10.76
2018-05-19T05:39:25.313Z,10.75
2018-05-19T05:40:32.044Z,10.75
2018-05-19T05:41:38.774Z,10.76
2018-05-19T05:42:45.560Z,10.74
2018-05-19T05:43:52.251Z,10.74
2018-05-19T05:44:58.946Z,10.74
2018-05-19T05:46:05.687Z,10.74
2018-05-19T05:47:12.430Z,10.73
2018-05-19T05:48:19.120Z,10.72
2018-05-19T05:49:25.905Z,10.72
2018-05-19T05:50:32.655Z,10.73
2018-05-19T05:51:39.512Z,10.72
2018-05-19T05:52:46.327Z,10.71
2018-05-19T05:53:53.355Z,10.73
2018-05-19T05:55:00.162Z,10.72
2018-05-19T05:56:06.963Z,10.72
2018-05-19T05:57:13.705Z,10.71
2018-05-19T05:58:20.597Z,10.71
2018-05-19T05:59:27.325Z,10.72
2018-05-19T06:00:34.091Z,10.71
2018-05-19T06:01:40.791Z,10.71
2018-05-19T06:02:47.597Z,10.69
2018-05-19T06:03:54.808Z,10.70
2018-05-19T06:05:01.579Z,10.71
2018-05-19T06:06:08.307Z,10.72
2018-05-19T06:07:15.039Z,10.71
2018-05-19T06:08:21.822Z,10.68
2018-05-19T06:09:28.525Z,10.70
2018-05-19T06:10:35.249Z,10.71
2018-05-19T06:11:41.975Z,10.71
2018-05-19T06:12:48.749Z,10.69
2018-05-19T06:13:55.530Z,10.71
2018-05-19T06:15:02.244Z,10.69
2018-05-19T06:16:09.011Z,10.70
2018-05-19T06:17:15.943Z,10.69
2018-05-19T06:18:22.695Z,10.71
2018-05-19T06:19:29.538Z,10.70
2018-05-19T06:20:36.659Z,10.69
2018-05-19T06:21:43.371Z,10.70
2018-05-19T06:22:50.179Z,10.69
2018-05-19T06:23:57.094Z,10.70
2018-05-19T06:25:04.045Z,10.70
2018-05-19T06:26:10.647Z,10.70
2018-05-19T06:27:17.370Z,10.70
2018-05-19T06:28:24.366Z,10.69
2018-05-19T06:29:31.103Z,10.70
2018-05-19T06:30:37.852Z,10.70
2018-05-19T06:31:44.558Z,10.70
2018-05-19T06:32:51.463Z,10.72
2018-05-19T06:33:58.210Z,10.70
2018-05-19T06:35:04.950Z,10.71
2018-05-19T06:36:11.658Z,10.71
2018-05-19T06:37:18.602Z,10.70
2018-05-19T06:38:25.636Z,10.71
2018-05-19T06:39:32.659Z,10.71
2018-05-19T06:40:39.532Z,10.72
2018-05-19T06:41:46.279Z,10.71
2018-05-19T06:42:53.348Z,10.72
2018-05-19T06:44:00.262Z,10.73
2018-05-19T06:45:07.003Z,10.74
2018-05-19T06:46:13.749Z,10.73
2018-05-19T06:47:20.443Z,10.73
2018-05-19T06:48:27.226Z,10.74
2018-05-19T06:49:33.919Z,10.74
2018-05-19T06:50:40.646Z,10.74
2018-05-19T06:51:47.357Z,10.74
2018-05-19T06:52:54.130Z,10.75
2018-05-19T06:54:00.907Z,10.75
2018-05-19T06:55:07.662Z,10.75
2018-05-19T06:56:14.662Z,10.75
2018-05-19T06:57:21.396Z,10.77
2018-05-19T06:58:28.840Z,10.77
2018-05-19T06:59:34.806Z,10.75
2018-05-19T07:00:41.598Z,10.78
2018-05-19T07:01:48.473Z,10.78
2018-05-19T07:02:55.478Z,10.78
2018-05-19T07:04:02.424Z,10.77
2018-05-19T07:05:09.561Z,10.80
2018-05-19T07:06:16.075Z,10.80
2018-05-19T07:07:22.719Z,10.82
2018-05-19T07:08:29.509Z,10.81
2018-05-19T07:09:36.356Z,10.83
2018-05-19T07:10:43.271Z,10.83
2018-05-19T07:11:51.100Z,10.84
2018-05-19T07:12:57.281Z,10.83
2018-05-19T07:14:04.430Z,10.85
2018-05-19T07:15:11.514Z,10.88
2018-05-19T07:16:18.258Z,10.88
2018-05-19T07:17:25.136Z,10.88
2018-05-19T07:18:32.023Z,10.91
2018-05-19T07:19:38.761Z,10.89
2018-05-19T07:20:45.471Z,10.91
2018-05-19T07:21:52.195Z,10.91
2018-05-19T07:22:59.112Z,10.92
2018-05-19T07:24:05.847Z,10.93
2018-05-19T07:25:12.562Z,10.96
2018-05-19T07:26:19.401Z,10.95
2018-05-19T07:27:26.389Z,10.98
2018-05-19T07:28:33.127Z,10.98
2018-05-19T07:29:39.815Z,11.01
2018-05-19T07:30:46.528Z,11.01
2018-05-19T07:31:53.340Z,11.02
2018-05-19T07:33:00.223Z,11.02
2018-05-19T07:34:07.008Z,11.03
2018-05-19T07:35:13.770Z,11.05
2018-05-19T07:36:20.561Z,11.06
2018-05-19T07:37:27.262Z,11.08
2018-05-19T07:38:34.011Z,11.10
2018-05-19T07:39:40.741Z,11.11
2018-05-19T07:40:47.464Z,11.13
2018-05-19T07:41:55.673Z,11.13
2018-05-19T07:43:01.358Z,11.15
2018-05-19T07:44:08.202Z,11.16
2018-05-19T07:45:15.252Z,11.17
2018-05-19T07:46:21.991Z,11.19
2018-05-19T07:47:30.286Z,11.20
2018-05-19T07:48:35.549Z,11.22
2018-05-19T07:49:42.231Z,11.22
2018-05-19T07:50:48.952Z,11.25
2018-05-19T07:51:55.694Z,11.27
2018-05-19T07:53:02.389Z,11.27
2018-05-19T07:54:09.115Z,11.30
2018-05-19T07:55:15.868Z,11.31
2018-05-19T07:56:22.602Z,11.33
2018-05-19T07:57:29.335Z,11.34
2018-05-19T07:58:36.058Z,11.35
2018-05-19T07:59:42.891Z,11.38
2018-05-19T08:00:49.626Z,11.39
2018-05-19T08:01:56.365Z,11.41
2018-05-19T08:03:03.178Z,11.43
2018-05-19T08:04:10.025Z,11.45
2018-05-19T08:05:16.739Z,11.46
2018-05-19T08:06:23.572Z,11.49
2018-05-19T08:07:30.315Z,11.50
2018-05-19T08:08:37.019Z,11.51
2018-05-19T08:09:43.731Z,11.54
2018-05-19T08:10:50.453Z,11.54
2018-05-19T08:11:57.242Z,11.57
2018-05-19T08:13:04.071Z,11.58
2018-05-19T08:14:10.815Z,11.61
2018-05-19T08:15:17.542Z,11.63
2018-05-19T08:16:24.395Z,11.63
2018-05-19T08:17:31.067Z,11.67
2018-05-19T08:18:37.829Z,11.67
2018-05-19T08:19:44.546Z,11.70
2018-05-19T08:20:51.253Z,11.72
2018-05-19T08:21:57.999Z,11.74
2018-05-19T08:23:04.742Z,11.75
2018-05-19T08:24:11.534Z,11.77
2018-05-19T08:25:18.269Z,11.80
2018-05-19T08:26:24.995Z,11.82
2018-05-19T08:27:31.733Z,11.84
2018-05-19T08:28:38.478Z,11.85
2018-05-19T08:29:45.227Z,11.88
2018-05-19T08:30:51.946Z,11.90
2018-05-19T08:31:58.834Z,11.90
2018-05-19T08:33:05.584Z,11.94
2018-05-19T08:34:12.335Z,11.94
2018-05-19T08:35:19.179Z,11.96
2018-05-19T08:36:25.967Z,11.99
2018-05-19T08:37:32.789Z,12.00
2018-05-19T08:38:39.589Z,12.01
2018-05-19T08:39:46.607Z,12.05
2018-05-19T08:40:53.346Z,12.06
2018-05-19T08:42:00.053Z,12.08
2018-05-19T08:43:06.825Z,12.09
2018-05-19T08:44:13.583Z,12.11
2018-05-19T08:45:20.383Z,12.15
2018-05-19T08:46:27.147Z,12.17
2018-05-19T08:47:33.911Z,12.19
2018-05-19T08:48:40.665Z,12.20
2018-05-19T08:49:47.465Z,12.24
2018-05-19T08:50:54.231Z,12.25
2018-05-19T08:52:00.975Z,12.27
2018-05-19T08:53:07.723Z,12.29
2018-05-19T08:54:14.496Z,12.31
2018-05-19T08:55:21.210Z,12.33
2018-05-19T08:56:27.926Z,12.36
2018-05-19T08:57:34.680Z,12.38
2018-05-19T08:58:41.498Z,12.41
2018-05-19T08:59:48.234Z,12.43
2018-05-19T09:00:55.042Z,12.46
2018-05-19T09:02:01.746Z,12.49
2018-05-19T09:03:08.538Z,12.50
2018-05-19T09:04:15.290Z,12.53
2018-05-19T09:05:22.051Z,12.55
2018-05-19T09:06:28.808Z,12.57
2018-05-19T09:07:35.559Z,12.61
2018-05-19T09:08:42.287Z,12.63
2018-05-19T09:09:49.049Z,12.66
2018-05-19T09:10:55.747Z,12.69
2018-05-19T09:12:02.455Z,12.71
2018-05-19T09:13:09.238Z,12.74
2018-05-19T09:14:16.002Z,12.76
2018-05-19T09:15:22.747Z,12.79
2018-05-19T09:16:29.469Z,12.80
2018-05-19T09:17:36.309Z,12.82
2018-05-19T09:18:43.134Z,12.85
2018-05-19T09:19:51.317Z,12.88
2018-05-19T09:20:56.575Z,12.89
2018-05-19T09:22:03.319Z,12.92
2018-05-19T09:23:10.110Z,12.95
2018-05-19T09:24:17.382Z,12.96
2018-05-19T09:25:23.747Z,12.99
2018-05-19T09:26:30.489Z,13.01
2018-05-19T09:27:37.247Z,13.05
2018-05-19T09:28:43.951Z,13.05
2018-05-19T09:29:50.820Z,13.08
2018-05-19T09:30:57.891Z,13.11
2018-05-19T09:32:04.594Z,13.14
2018-05-19T09:33:11.322Z,13.15
2018-05-19T09:34:18.369Z,13.18
2018-05-19T09:35:25.138Z,13.20
2018-05-19T09:36:31.846Z,13.22
2018-05-19T09:37:38.734Z,13.25
2018-05-19T09:38:45.520Z,13.28
2018-05-19T09:39:52.322Z,13.29
2018-05-19T09:40:59.133Z,13.32
2018-05-19T09:42:05.873Z,13.34
2018-05-19T09:43:12.664Z,13.36
2018-05-19T09:44:19.411Z,13.38
2018-05-19T09:45:26.191Z,13.41
2018-05-19T09:46:32.945Z,13.42
2018-05-19T09:47:39.758Z,13.46
2018-05-19T09:48:46.893Z,13.47
2018-05-19T09:49:53.738Z,13.49
2018-05-19T09:51:00.486Z,13.52
2018-05-19T09:52:07.672Z,13.55
2018-05-19T09:53:14.139Z,13.56
2018-05-19T09:54:21.029Z,13.60
2018-05-19T09:55:27.909Z,13.62
2018-05-19T09:56:34.659Z,13.64
2018-05-19T09:57:41.454Z,13.67
2018-05-19T09:58:48.295Z,13.70
2018-05-19T09:59:55.103Z,13.72
2018-05-19T10:01:03.045Z,13.75
2018-05-19T10:02:09.512Z,13.79
2018-05-19T10:03:16.485Z,13.81
2018-05-19T10:04:23.199Z,13.82
2018-05-19T10:05:29.592Z,13.86
2018-05-19T10:06:36.451Z,13.89
2018-05-19T10:07:43.270Z,13.91
2018-05-19T10:08:50.084Z,13.93
2018-05-19T10:09:56.825Z,13.95
2018-05-19T10:11:03.614Z,13.99
2018-05-19T10:12:10.493Z,14.01
2018-05-19T10:13:17.263Z,14.03
2018-05-19T10:14:23.981Z,14.07
2018-05-19T10:15:30.735Z,14.07
2018-05-19T10:16:37.467Z,14.10
2018-05-19T10:17:44.195Z,14.12
2018-05-19T10:18:51.099Z,14.14
2018-05-19T10:19:57.954Z,14.18
2018-05-19T10:21:04.789Z,14.20
2018-05-19T10:22:11.707Z,14.21
2018-05-19T10:23:18.594Z,14.24
2018-05-19T10:24:25.374Z,14.26
2018-05-19T10:25:32.153Z,14.28
2018-05-19T10:26:38.967Z,14.30
2018-05-19T10:27:45.707Z,14.31
2018-05-19T10:28:52.478Z,14.33
2018-05-19T10:29:59.342Z,14.36
2018-05-19T10:31:06.127Z,14.38
2018-05-19T10:32:12.891Z,14.41
2018-05-19T10:33:19.785Z,14.44
2018-05-19T10:34:26.527Z,14.46
2018-05-19T10:35:33.675Z,14.48
2018-05-19T10:36:40.351Z,14.50
2018-05-19T10:37:47.121Z,14.52
2018-05-19T10:38:53.902Z,14.55
2018-05-19T10:40:00.742Z,14.58
2018-05-19T10:41:07.670Z,14.59
2018-05-19T10:42:14.395Z,14.62
2018-05-19T10:43:21.127Z,14.63
2018-05-19T10:44:27.907Z,14.67
2018-05-19T10:45:34.722Z,14.68
2018-05-19T10:46:41.476Z,14.70
2018-05-19T10:47:48.243Z,14.72
2018-05-19T10:48:54.981Z,14.74
2018-05-19T10:50:02.012Z,14.77
2018-05-19T10:51:08.768Z,14.81
2018-05-19T10:52:15.511Z,14.83
2018-05-19T10:53:22.275Z,14.85
2018-05-19T10:54:29.030Z,14.88
2018-05-19T10:55:35.926Z,14.91
2018-05-19T10:56:42.675Z,14.92
2018-05-19T10:57:49.575Z,14.94
2018-05-19T10:58:56.379Z,14.97
2018-05-19T11:00:03.203Z,14.99
2018-05-19T11:01:10.110Z,15.01
2018-05-19T11:02:16.879Z,15.04
2018-05-19T11:03:23.846Z,15.07
2018-05-19T11:04:30.590Z,15.08
2018-05-19T11:05:37.323Z,15.12
2018-05-19T11:06:44.074Z,15.14
2018-05-19T11:07:50.891Z,15.17
2018-05-19T11:08:57.607Z,15.18
2018-05-19T11:10:04.338Z,15.20
2018-05-19T11:11:11.079Z,15.22
2018-05-19T11:12:17.801Z,15.25
2018-05-19T11:13:24.649Z,15.27
2018-05-19T11:14:31.518Z,15.29
2018-05-19T11:15:38.466Z,15.32
2018-05-19T11:16:45.264Z,15.33
2018-05-19T11:17:51.954Z,15.36
2018-05-19T11:18:58.646Z,15.38
2018-05-19T11:20:05.435Z,15.41
2018-05-19T11:21:12.188Z,15.43
2018-05-19T11:22:18.931Z,15.47
2018-05-19T11:23:25.725Z,15.47
2018-05-19T11:24:32.496Z,15.50
2018-05-19T11:25:39.253Z,15.52
2018-05-19T11:26:45.982Z,15.55
2018-05-19T11:27:52.746Z,15.57
2018-05-19T11:28:59.694Z,15.60
2018-05-19T11:30:06.453Z,15.60
2018-05-19T11:31:13.226Z,15.63
2018-05-19T11:32:20.039Z,15.65
2018-05-19T11:33:26.751Z,15.68
2018-05-19T11:34:33.527Z,15.70
2018-05-19T11:35:40.259Z,15.71
2018-05-19T11:36:47.100Z,15.73
2018-05-19T11:37:53.791Z,15.75
2018-05-19T11:39:00.518Z,15.79
2018-05-19T11:40:07.600Z,15.80
2018-05-19T11:41:14.363Z,15.82
2018-05-19T11:42:21.112Z,15.85
2018-05-19T11:43:27.867Z,15.86
2018-05-19T11:44:34.619Z,15.88
2018-05-19T11:45:42.256Z,15.89
2018-05-19T11:46:48.051Z,15.92
2018-05-19T11:47:54.764Z,15.93
2018-05-19T11:49:01.507Z,15.96
2018-05-19T11:50:08.207Z,15.96
2018-05-19T11:51:15.047Z,15.99
2018-05-19T11:52:21.992Z,16.00
2018-05-19T11:53:28.804Z,16.04
2018-05-19T11:54:35.552Z,16.06
2018-05-19T11:55:42.367Z,16.08
2018-05-19T11:56:49.091Z,16.11
2018-05-19T11:57:55.883Z,16.13
2018-05-19T11:59:02.631Z,16.15
2018-05-19T12:00:09.472Z,16.17
2018-05-19T12:01:16.347Z,16.18
2018-05-19T12:02:23.088Z,16.22
2018-05-19T12:03:29.832Z,16.23
2018-05-19T12:04:36.559Z,16.25
2018-05-19T12:05:43.484Z,16.26
2018-05-19T12:06:50.158Z,16.28
2018-05-19T12:07:57.023Z,16.30
2018-05-19T12:09:03.812Z,16.32
2018-05-19T12:10:10.555Z,16.35
2018-05-19T12:11:17.354Z,16.35
2018-05-19T12:12:24.197Z,16.38
2018-05-19T12:13:30.867Z,16.39
2018-05-19T12:14:37.574Z,16.41
2018-05-19T12:15:44.300Z,16.44
2018-05-19T12:16:51.051Z,16.46
2018-05-19T12:17:57.737Z,16.48
2018-05-19T12:19:04.539Z,16.48
2018-05-19T12:20:11.263Z,16.50
2018-05-19T12:21:18.007Z,16.53
2018-05-19T12:22:24.755Z,16.53
2018-05-19T12:23:31.508Z,16.56
2018-05-19T12:24:38.278Z,16.57
2018-05-19T12:25:45.004Z,16.58
2018-05-19T12:26:51.735Z,16.61
2018-05-19T12:27:58.511Z,16.63
2018-05-19T12:29:05.394Z,16.65
2018-05-19T12:30:12.106Z,16.66
2018-05-19T12:31:18.927Z,16.69
2018-05-19T12:32:25.634Z,16.69
2018-05-19T12:33:32.422Z,16.71
2018-05-19T12:34:39.222Z,16.73
2018-05-19T12:35:46.031Z,16.75
2018-05-19T12:36:52.910Z,16.75
2018-05-19T12:37:59.760Z,16.79
2018-05-19T12:39:06.534Z,16.79
2018-05-19T12:40:13.291Z,16.81
2018-05-19T12:41:20.060Z,16.82
2018-05-19T12:42:26.829Z,16.85
2018-05-19T12:43:33.703Z,16.86
2018-05-19T12:44:40.461Z,16.89
2018-05-19T12:45:47.304Z,16.90
2018-05-19T12:46:54.141Z,16.93
2018-05-19T12:48:00.887Z,16.93
2018-05-19T12:49:07.702Z,16.95
2018-05-19T12:50:14.575Z,16.96
2018-05-19T12:51:21.448Z,16.98
2018-05-19T12:52:28.256Z,17.00
2018-05-19T12:53:36.765Z,17.04
2018-05-19T12:54:41.831Z,17.04
2018-05-19T12:55:48.583Z,17.06
2018-05-19T12:56:55.363Z,17.07
2018-05-19T12:58:02.195Z,17.10
2018-05-19T12:59:09.010Z,17.12
2018-05-19T13:00:15.900Z,17.13
2018-05-19T13:01:22.696Z,17.16
2018-05-19T13:02:29.423Z,17.16
2018-05-19T13:03:36.296Z,17.16
2018-05-19T13:04:42.983Z,17.19
2018-05-19T13:05:49.720Z,17.20
2018-05-19T13:06:56.471Z,17.21
2018-05-19T13:08:03.214Z,17.22
2018-05-19T13:09:10.059Z,17.24
2018-05-19T13:10:16.826Z,17.26
2018-05-19T13:11:23.636Z,17.26
2018-05-19T13:12:30.385Z,17.27
2018-05-19T13:13:37.191Z,17.29
2018-05-19T13:14:43.943Z,17.29
2018-05-19T13:15:50.699Z,17.31
2018-05-19T13:16:57.422Z,17.33
2018-05-19T13:18:04.311Z,17.34
2018-05-19T13:19:11.043Z,17.36
2018-05-19T13:20:17.811Z,17.36
2018-05-19T13:21:24.644Z,17.36
2018-05-19T13:22:31.402Z,17.39
2018-05-19T13:23:38.180Z,17.41
2018-05-19T13:24:44.962Z,17.42
2018-05-19T13:25:51.684Z,17.43
2018-05-19T13:26:58.458Z,17.45
2018-05-19T13:28:05.185Z,17.46
2018-05-19T13:29:11.903Z,17.46
2018-05-19T13:30:18.622Z,17.48
2018-05-19T13:31:25.359Z,17.50
2018-05-19T13:32:32.159Z,17.51
2018-05-19T13:33:38.863Z,17.51
2018-05-19T13:34:45.593Z,17.52
2018-05-19T13:35:52.363Z,17.54
2018-05-19T13:36:59.090Z,17.55
2018-05-19T13:38:05.878Z,17.56
2018-05-19T13:39:12.619Z,17.58
2018-05-19T13:40:19.349Z,17.58
2018-05-19T13:41:26.156Z,17.60
2018-05-19T13:42:32.928Z,17.61
2018-05-19T13:43:39.666Z,17.62
2018-05-19T13:44:46.411Z,17.64
2018-05-19T13:45:53.187Z,17.64
2018-05-19T13:47:00.045Z,17.66
2018-05-19T13:48:06.794Z,17.67
2018-05-19T13:49:13.490Z,17.69
2018-05-19T13:50:20.226Z,17.70
2018-05-19T13:51:26.977Z,17.72
2018-05-19T13:52:33.722Z,17.73
2018-05-19T13:53:40.462Z,17.74
2018-05-19T13:54:47.228Z,17.76
2018-05-19T13:55:53.963Z,17.77
2018-05-19T13:57:00.822Z,17.77
2018-05-19T13:58:07.633Z,17.79
2018-05-19T13:59:14.367Z,17.79
2018-05-19T14:00:21.083Z,17.81
2018-05-19T14:01:27.894Z,17.82
2018-05-19T14:02:34.644Z,17.82
2018-05-19T14:03:41.383Z,17.85
2018-05-19T14:04:48.123Z,17.86
2018-05-19T14:05:54.948Z,17.87
2018-05-19T14:07:01.767Z,17.89
2018-05-19T14:08:08.563Z,17.91
2018-05-19T14:09:15.402Z,17.91
2018-05-19T14:10:22.464Z,17.93
2018-05-19T14:11:29.261Z,17.94
2018-05-19T14:12:36.099Z,17.95
2018-05-19T14:13:42.845Z,17.96
2018-05-19T14:14:49.608Z,17.98
2018-05-19T14:15:56.326Z,18.00
2018-05-19T14:17:03.087Z,18.01
2018-05-19T14:18:09.839Z,18.03
2018-05-19T14:19:16.562Z,18.01
2018-05-19T14:20:23.327Z,18.05